sensor_id;sensor_type;location;lat;lon;timestamp;P1;durP1;ratioP1;P2;durP2;ratioP2
9418;SDS011;4748;50.802;7.132;2022-08-19T03:31:21;10.70;;;8.37;;
9418;SDS011;4748;50.802;7.132;2022-08-19T03:33:48;13.50;;;9.63;;
9418;SDS011;4748;50.802;7.132;2022-08-19T03:36:18;12.93;;;9.47;;
9418;SDS011;4748;50.802;7.132;2022-08-19T03:38:52;13.80;;;9.03;;
9418;SDS011;4748;50.802;7.132;2022-08-19T03:41:23;19.73;;;9.67;;
9418;SDS011;4748;50.802;7.132;2022-08-19T03:43:55;13.33;;;9.37;;
9418;SDS011;4748;50.802;7.132;2022-08-19T03:46:22;16.13;;;9.53;;
9418;SDS011;4748;50.802;7.132;2022-08-19T03:48:50;14.30;;;9.97;;
9418;SDS011;4748;50.802;7.132;2022-08-19T03:51:23;14.97;;;9.37;;
9418;SDS011;4748;50.802;7.132;2022-08-19T03:53:50;12.53;;;9.13;;
9418;SDS011;4748;50.802;7.132;2022-08-19T03:56:17;11.77;;;8.73;;
9418;SDS011;4748;50.802;7.132;2022-08-19T03:58:43;10.17;;;9.07;;
9418;SDS011;4748;50.802;7.132;2022-08-19T04:01:10;11.83;;;10.27;;
9418;SDS011;4748;50.802;7.132;2022-08-19T04:03:37;13.10;;;9.03;;
9418;SDS011;4748;50.802;7.132;2022-08-19T04:08:40;14.27;;;9.77;;
9418;SDS011;4748;50.802;7.132;2022-08-19T04:11:07;14.83;;;8.67;;
9418;SDS011;4748;50.802;7.132;2022-08-19T04:13:34;11.43;;;8.37;;
9418;SDS011;4748;50.802;7.132;2022-08-19T04:16:00;15.63;;;10.27;;
9418;SDS011;4748;50.802;7.132;2022-08-19T04:18:25;12.83;;;9.30;;
9418;SDS011;4748;50.802;7.132;2022-08-19T04:20:51;11.17;;;9.20;;
9418;SDS011;4748;50.802;7.132;2022-08-19T04:23:16;14.10;;;9.10;;
9418;SDS011;4748;50.802;7.132;2022-08-19T04:25:43;13.23;;;8.50;;
9418;SDS011;4748;50.802;7.132;2022-08-19T04:28:10;12.10;;;9.33;;
9418;SDS011;4748;50.802;7.132;2022-08-19T04:30:38;16.03;;;10.13;;
9418;SDS011;4748;50.802;7.132;2022-08-19T04:33:11;20.27;;;9.60;;
9418;SDS011;4748;50.802;7.132;2022-08-19T04:35:43;13.83;;;9.60;;
9418;SDS011;4748;50.802;7.132;2022-08-19T04:38:11;12.87;;;9.13;;
9418;SDS011;4748;50.802;7.132;2022-08-19T04:40:48;10.47;;;7.97;;
9418;SDS011;4748;50.802;7.132;2022-08-19T04:43:35;12.53;;;9.43;;
9418;SDS011;4748;50.802;7.132;2022-08-19T04:46:09;16.63;;;9.47;;
9418;SDS011;4748;50.802;7.132;2022-08-19T04:48:36;16.27;;;10.33;;
9418;SDS011;4748;50.802;7.132;2022-08-19T04:51:06;13.17;;;10.10;;
9418;SDS011;4748;50.802;7.132;2022-08-19T04:53:34;14.60;;;9.20;;
9418;SDS011;4748;50.802;7.132;2022-08-19T04:56:04;11.67;;;8.53;;
9418;SDS011;4748;50.802;7.132;2022-08-19T04:58:35;17.57;;;9.67;;
9418;SDS011;4748;50.802;7.132;2022-08-19T05:01:02;13.57;;;8.30;;
9418;SDS011;4748;50.802;7.132;2022-08-19T05:03:29;18.50;;;9.20;;
9418;SDS011;4748;50.802;7.132;2022-08-19T05:05:58;16.63;;;8.93;;
9418;SDS011;4748;50.802;7.132;2022-08-19T05:08:35;10.67;;;7.83;;
9418;SDS011;4748;50.802;7.132;2022-08-19T05:11:06;16.70;;;9.87;;
9418;SDS011;4748;50.802;7.132;2022-08-19T05:13:34;14.23;;;8.90;;
9418;SDS011;4748;50.802;7.132;2022-08-19T05:15:59;12.70;;;8.60;;
9418;SDS011;4748;50.802;7.132;2022-08-19T05:18:25;10.40;;;8.50;;
9418;SDS011;4748;50.802;7.132;2022-08-19T05:21:14;17.23;;;11.03;;
9418;SDS011;4748;50.802;7.132;2022-08-19T05:23:59;12.30;;;8.93;;
9418;SDS011;4748;50.802;7.132;2022-08-19T05:26:26;16.10;;;9.53;;
9418;SDS011;4748;50.802;7.132;2022-08-19T05:28:51;12.23;;;9.70;;
9418;SDS011;4748;50.802;7.132;2022-08-19T05:31:17;14.80;;;10.37;;
9418;SDS011;4748;50.802;7.132;2022-08-19T05:33:43;13.40;;;8.73;;
9418;SDS011;4748;50.802;7.132;2022-08-19T05:36:09;13.23;;;9.07;;
9418;SDS011;4748;50.802;7.132;2022-08-19T05:38:34;12.70;;;9.33;;
9418;SDS011;4748;50.802;7.132;2022-08-19T05:41:01;18.03;;;9.90;;
9418;SDS011;4748;50.802;7.132;2022-08-19T05:43:32;16.73;;;10.47;;
9418;SDS011;4748;50.802;7.132;2022-08-19T05:45:58;15.17;;;10.30;;
9418;SDS011;4748;50.802;7.132;2022-08-19T05:48:23;21.93;;;10.60;;
9418;SDS011;4748;50.802;7.132;2022-08-19T05:50:48;14.33;;;10.40;;
9418;SDS011;4748;50.802;7.132;2022-08-19T05:53:15;17.37;;;11.13;;
9418;SDS011;4748;50.802;7.132;2022-08-19T05:55:41;15.93;;;10.43;;
9418;SDS011;4748;50.802;7.132;2022-08-19T05:58:07;17.33;;;10.50;;
9418;SDS011;4748;50.802;7.132;2022-08-19T06:00:33;18.03;;;11.63;;
9418;SDS011;4748;50.802;7.132;2022-08-19T06:02:58;27.03;;;10.87;;
9418;SDS011;4748;50.802;7.132;2022-08-19T06:05:28;16.20;;;10.57;;
9418;SDS011;4748;50.802;7.132;2022-08-19T06:07:57;22.30;;;12.27;;
9418;SDS011;4748;50.802;7.132;2022-08-19T06:10:23;27.80;;;13.30;;
9418;SDS011;4748;50.802;7.132;2022-08-19T06:12:51;23.73;;;12.43;;
9418;SDS011;4748;50.802;7.132;2022-08-19T06:15:17;21.23;;;12.40;;
9418;SDS011;4748;50.802;7.132;2022-08-19T06:17:43;19.53;;;13.03;;
9418;SDS011;4748;50.802;7.132;2022-08-19T06:20:10;22.63;;;13.40;;
9418;SDS011;4748;50.802;7.132;2022-08-19T06:22:39;25.07;;;13.73;;
9418;SDS011;4748;50.802;7.132;2022-08-19T06:25:09;29.60;;;13.33;;
9418;SDS011;4748;50.802;7.132;2022-08-19T06:27:36;23.47;;;12.77;;
9418;SDS011;4748;50.802;7.132;2022-08-19T06:30:02;19.90;;;12.97;;
9418;SDS011;4748;50.802;7.132;2022-08-19T06:32:29;17.53;;;11.77;;
9418;SDS011;4748;50.802;7.132;2022-08-19T06:34:55;29.03;;;14.77;;
9418;SDS011;4748;50.802;7.132;2022-08-19T06:37:21;23.63;;;13.63;;
9418;SDS011;4748;50.802;7.132;2022-08-19T06:39:47;17.73;;;11.90;;
9418;SDS011;4748;50.802;7.132;2022-08-19T06:42:13;22.05;;;12.00;;
9418;SDS011;4748;50.802;7.132;2022-08-19T06:44:41;18.10;;;12.80;;
9418;SDS011;4748;50.802;7.132;2022-08-19T06:47:11;18.00;;;12.05;;
9418;SDS011;4748;50.802;7.132;2022-08-19T06:49:38;30.95;;;12.50;;
9418;SDS011;4748;50.802;7.132;2022-08-19T06:52:04;24.10;;;12.67;;
9418;SDS011;4748;50.802;7.132;2022-08-19T06:54:30;22.57;;;13.90;;
9418;SDS011;4748;50.802;7.132;2022-08-19T06:56:59;23.02;;;13.85;;
9418;SDS011;4748;50.802;7.132;2022-08-19T06:59:28;19.13;;;13.45;;
9418;SDS011;4748;50.802;7.132;2022-08-19T07:01:57;23.83;;;14.90;;
9418;SDS011;4748;50.802;7.132;2022-08-19T07:04:26;22.73;;;14.27;;
9418;SDS011;4748;50.802;7.132;2022-08-19T07:06:58;25.30;;;14.95;;
9418;SDS011;4748;50.802;7.132;2022-08-19T07:09:25;21.15;;;14.23;;
9418;SDS011;4748;50.802;7.132;2022-08-19T07:11:52;23.58;;;14.35;;
9418;SDS011;4748;50.802;7.132;2022-08-19T07:14:18;28.25;;;15.45;;
9418;SDS011;4748;50.802;7.132;2022-08-19T07:16:47;30.73;;;16.92;;
9418;SDS011;4748;50.802;7.132;2022-08-19T07:19:14;28.85;;;16.00;;
9418;SDS011;4748;50.802;7.132;2022-08-19T07:21:41;26.80;;;15.57;;
9418;SDS011;4748;50.802;7.132;2022-08-19T07:24:06;26.98;;;15.55;;
9418;SDS011;4748;50.802;7.132;2022-08-19T07:26:33;31.73;;;15.50;;
9418;SDS011;4748;50.802;7.132;2022-08-19T07:29:03;28.98;;;17.42;;
9418;SDS011;4748;50.802;7.132;2022-08-19T07:31:30;34.03;;;15.55;;
9418;SDS011;4748;50.802;7.132;2022-08-19T07:33:55;30.13;;;16.00;;
9418;SDS011;4748;50.802;7.132;2022-08-19T07:36:26;30.40;;;15.05;;
9418;SDS011;4748;50.802;7.132;2022-08-19T07:38:57;29.48;;;14.10;;
9418;SDS011;4748;50.802;7.132;2022-08-19T07:41:27;24.42;;;14.50;;
9418;SDS011;4748;50.802;7.132;2022-08-19T07:43:56;20.45;;;13.65;;
9418;SDS011;4748;50.802;7.132;2022-08-19T07:46:23;21.60;;;15.25;;
9418;SDS011;4748;50.802;7.132;2022-08-19T07:48:49;24.75;;;14.25;;
9418;SDS011;4748;50.802;7.132;2022-08-19T07:51:17;26.95;;;15.82;;
9418;SDS011;4748;50.802;7.132;2022-08-19T07:53:44;24.35;;;13.07;;
9418;SDS011;4748;50.802;7.132;2022-08-19T07:56:10;19.10;;;12.20;;
9418;SDS011;4748;50.802;7.132;2022-08-19T07:58:38;18.05;;;12.45;;
9418;SDS011;4748;50.802;7.132;2022-08-19T08:01:06;21.17;;;12.68;;
9418;SDS011;4748;50.802;7.132;2022-08-19T08:03:32;18.70;;;13.52;;
9418;SDS011;4748;50.802;7.132;2022-08-19T08:06:17;17.48;;;11.38;;
9418;SDS011;4748;50.802;7.132;2022-08-19T08:09:02;20.05;;;11.93;;
9418;SDS011;4748;50.802;7.132;2022-08-19T08:11:36;18.50;;;11.65;;
9418;SDS011;4748;50.802;7.132;2022-08-19T08:14:06;16.40;;;10.68;;
9418;SDS011;4748;50.802;7.132;2022-08-19T08:16:34;20.85;;;11.52;;
9418;SDS011;4748;50.802;7.132;2022-08-19T08:19:04;21.67;;;12.02;;
9418;SDS011;4748;50.802;7.132;2022-08-19T08:21:31;15.15;;;11.13;;
9418;SDS011;4748;50.802;7.132;2022-08-19T08:23:57;14.45;;;10.05;;
9418;SDS011;4748;50.802;7.132;2022-08-19T08:26:23;9.77;;;7.07;;
9418;SDS011;4748;50.802;7.132;2022-08-19T08:28:49;8.63;;;7.13;;
9418;SDS011;4748;50.802;7.132;2022-08-19T08:31:15;9.10;;;7.50;;
9418;SDS011;4748;50.802;7.132;2022-08-19T08:33:41;19.80;;;7.45;;
9418;SDS011;4748;50.802;7.132;2022-08-19T08:36:07;10.68;;;8.82;;
9418;SDS011;4748;50.802;7.132;2022-08-19T08:38:33;12.95;;;8.20;;
9418;SDS011;4748;50.802;7.132;2022-08-19T08:41:01;13.32;;;7.80;;
9418;SDS011;4748;50.802;7.132;2022-08-19T08:43:51;13.60;;;8.35;;
9418;SDS011;4748;50.802;7.132;2022-08-19T08:51:41;7.70;;;6.30;;
9418;SDS011;4748;50.802;7.132;2022-08-19T08:54:13;16.02;;;8.30;;
9418;SDS011;4748;50.802;7.132;2022-08-19T08:56:42;8.63;;;6.82;;
9418;SDS011;4748;50.802;7.132;2022-08-19T08:59:12;14.55;;;7.30;;
9418;SDS011;4748;50.802;7.132;2022-08-19T09:01:47;11.77;;;7.75;;
9418;SDS011;4748;50.802;7.132;2022-08-19T09:04:13;12.77;;;7.72;;
9418;SDS011;4748;50.802;7.132;2022-08-19T09:09:17;10.57;;;7.80;;
9418;SDS011;4748;50.802;7.132;2022-08-19T09:12:03;10.52;;;7.30;;
9418;SDS011;4748;50.802;7.132;2022-08-19T09:17:00;12.45;;;7.43;;
9418;SDS011;4748;50.802;7.132;2022-08-19T09:19:28;10.43;;;7.10;;
9418;SDS011;4748;50.802;7.132;2022-08-19T09:21:54;14.35;;;8.43;;
9418;SDS011;4748;50.802;7.132;2022-08-19T09:24:19;13.10;;;7.95;;
9418;SDS011;4748;50.802;7.132;2022-08-19T09:26:45;15.35;;;8.05;;
9418;SDS011;4748;50.802;7.132;2022-08-19T09:29:11;12.43;;;8.68;;
9418;SDS011;4748;50.802;7.132;2022-08-19T09:31:37;16.60;;;9.93;;
9418;SDS011;4748;50.802;7.132;2022-08-19T09:34:03;13.88;;;9.13;;
9418;SDS011;4748;50.802;7.132;2022-08-19T09:36:29;15.63;;;9.35;;
9418;SDS011;4748;50.802;7.132;2022-08-19T09:38:57;18.95;;;9.65;;
9418;SDS011;4748;50.802;7.132;2022-08-19T09:41:25;22.48;;;11.43;;
9418;SDS011;4748;50.802;7.132;2022-08-19T09:43:51;17.23;;;10.88;;
9418;SDS011;4748;50.802;7.132;2022-08-19T09:46:19;17.70;;;10.55;;
9418;SDS011;4748;50.802;7.132;2022-08-19T09:48:46;18.33;;;10.40;;
9418;SDS011;4748;50.802;7.132;2022-08-19T09:51:14;22.08;;;10.20;;
9418;SDS011;4748;50.802;7.132;2022-08-19T09:53:42;19.35;;;10.82;;
9418;SDS011;4748;50.802;7.132;2022-08-19T09:56:09;15.20;;;10.57;;
9418;SDS011;4748;50.802;7.132;2022-08-19T09:58:35;19.63;;;10.25;;
9418;SDS011;4748;50.802;7.132;2022-08-19T10:01:02;21.30;;;11.27;;
9418;SDS011;4748;50.802;7.132;2022-08-19T10:03:29;19.00;;;11.13;;
9418;SDS011;4748;50.802;7.132;2022-08-19T10:05:58;20.50;;;11.40;;
9418;SDS011;4748;50.802;7.132;2022-08-19T10:08:25;17.08;;;10.23;;
9418;SDS011;4748;50.802;7.132;2022-08-19T10:10:56;21.90;;;9.85;;
9418;SDS011;4748;50.802;7.132;2022-08-19T10:13:23;17.20;;;10.23;;
9418;SDS011;4748;50.802;7.132;2022-08-19T10:15:52;15.75;;;10.30;;
9418;SDS011;4748;50.802;7.132;2022-08-19T10:18:20;17.60;;;9.98;;
9418;SDS011;4748;50.802;7.132;2022-08-19T10:20:46;21.38;;;10.93;;
9418;SDS011;4748;50.802;7.132;2022-08-19T10:23:13;24.45;;;12.73;;
9418;SDS011;4748;50.802;7.132;2022-08-19T10:25:40;19.75;;;12.82;;
9418;SDS011;4748;50.802;7.132;2022-08-19T10:28:05;20.98;;;11.70;;
9418;SDS011;4748;50.802;7.132;2022-08-19T10:30:32;20.65;;;11.75;;
9418;SDS011;4748;50.802;7.132;2022-08-19T10:32:57;18.95;;;10.20;;
9418;SDS011;4748;50.802;7.132;2022-08-19T10:35:23;19.05;;;11.65;;
9418;SDS011;4748;50.802;7.132;2022-08-19T10:37:51;18.95;;;11.45;;
9418;SDS011;4748;50.802;7.132;2022-08-19T10:40:16;16.88;;;11.30;;
9418;SDS011;4748;50.802;7.132;2022-08-19T10:42:42;17.40;;;12.25;;
9418;SDS011;4748;50.802;7.132;2022-08-19T10:45:09;20.17;;;12.55;;
9418;SDS011;4748;50.802;7.132;2022-08-19T10:47:35;18.73;;;12.02;;
9418;SDS011;4748;50.802;7.132;2022-08-19T10:50:02;13.13;;;9.30;;
9418;SDS011;4748;50.802;7.132;2022-08-19T10:52:47;23.45;;;10.43;;
9418;SDS011;4748;50.802;7.132;2022-08-19T10:55:14;14.25;;;9.45;;
9418;SDS011;4748;50.802;7.132;2022-08-19T10:57:58;14.63;;;9.38;;
9418;SDS011;4748;50.802;7.132;2022-08-19T11:00:24;13.27;;;8.85;;
9418;SDS011;4748;50.802;7.132;2022-08-19T11:02:50;10.65;;;8.10;;
9418;SDS011;4748;50.802;7.132;2022-08-19T11:05:16;8.65;;;7.55;;
9418;SDS011;4748;50.802;7.132;2022-08-19T11:07:43;13.25;;;8.38;;
9418;SDS011;4748;50.802;7.132;2022-08-19T11:10:10;9.35;;;7.32;;
9418;SDS011;4748;50.802;7.132;2022-08-19T11:12:37;17.13;;;8.63;;
9418;SDS011;4748;50.802;7.132;2022-08-19T11:15:06;14.20;;;9.30;;
9418;SDS011;4748;50.802;7.132;2022-08-19T11:17:33;8.75;;;7.47;;
9418;SDS011;4748;50.802;7.132;2022-08-19T11:19:59;8.10;;;7.30;;
9418;SDS011;4748;50.802;7.132;2022-08-19T11:22:28;11.05;;;7.95;;
9418;SDS011;4748;50.802;7.132;2022-08-19T11:24:53;9.75;;;8.20;;
9418;SDS011;4748;50.802;7.132;2022-08-19T11:27:20;10.40;;;8.18;;
9418;SDS011;4748;50.802;7.132;2022-08-19T11:29:45;12.55;;;8.63;;
9418;SDS011;4748;50.802;7.132;2022-08-19T11:32:10;7.15;;;6.47;;
9418;SDS011;4748;50.802;7.132;2022-08-19T11:34:39;13.90;;;8.07;;
9418;SDS011;4748;50.802;7.132;2022-08-19T11:37:05;10.90;;;6.68;;
9418;SDS011;4748;50.802;7.132;2022-08-19T11:39:31;9.18;;;6.55;;
9418;SDS011;4748;50.802;7.132;2022-08-19T11:41:59;9.57;;;7.32;;
9418;SDS011;4748;50.802;7.132;2022-08-19T11:44:27;7.28;;;6.57;;
9418;SDS011;4748;50.802;7.132;2022-08-19T11:46:55;9.18;;;6.85;;
9418;SDS011;4748;50.802;7.132;2022-08-19T11:49:21;6.95;;;6.03;;
9418;SDS011;4748;50.802;7.132;2022-08-19T11:51:47;10.95;;;6.45;;
9418;SDS011;4748;50.802;7.132;2022-08-19T11:54:13;8.82;;;5.82;;
9418;SDS011;4748;50.802;7.132;2022-08-19T11:56:41;8.80;;;6.55;;
9418;SDS011;4748;50.802;7.132;2022-08-19T11:59:07;13.23;;;5.40;;
9418;SDS011;4748;50.802;7.132;2022-08-19T12:01:36;8.25;;;6.10;;
9418;SDS011;4748;50.802;7.132;2022-08-19T12:04:02;6.18;;;5.57;;
9418;SDS011;4748;50.802;7.132;2022-08-19T12:06:30;4.65;;;4.35;;
9418;SDS011;4748;50.802;7.132;2022-08-19T12:08:58;6.68;;;6.07;;
9418;SDS011;4748;50.802;7.132;2022-08-19T12:11:26;8.32;;;6.43;;
9418;SDS011;4748;50.802;7.132;2022-08-19T12:13:52;8.07;;;5.68;;
9418;SDS011;4748;50.802;7.132;2022-08-19T12:16:20;11.80;;;6.10;;
9418;SDS011;4748;50.802;7.132;2022-08-19T12:18:48;8.10;;;5.10;;
9418;SDS011;4748;50.802;7.132;2022-08-19T12:21:16;5.88;;;4.85;;
9418;SDS011;4748;50.802;7.132;2022-08-19T12:23:46;9.88;;;5.38;;
9418;SDS011;4748;50.802;7.132;2022-08-19T12:26:14;5.13;;;4.82;;
9418;SDS011;4748;50.802;7.132;2022-08-19T12:28:40;7.40;;;5.32;;
9418;SDS011;4748;50.802;7.132;2022-08-19T12:31:06;7.60;;;5.60;;
9418;SDS011;4748;50.802;7.132;2022-08-19T12:33:33;5.97;;;5.38;;
9418;SDS011;4748;50.802;7.132;2022-08-19T12:36:06;5.43;;;4.68;;
9418;SDS011;4748;50.802;7.132;2022-08-19T12:38:34;7.20;;;4.68;;
9418;SDS011;4748;50.802;7.132;2022-08-19T12:41:00;4.93;;;4.53;;
9418;SDS011;4748;50.802;7.132;2022-08-19T12:43:30;5.90;;;5.40;;
9418;SDS011;4748;50.802;7.132;2022-08-19T12:45:55;4.90;;;4.40;;
9418;SDS011;4748;50.802;7.132;2022-08-19T12:48:21;5.47;;;4.97;;
9418;SDS011;4748;50.802;7.132;2022-08-19T12:50:46;6.63;;;5.47;;
9418;SDS011;4748;50.802;7.132;2022-08-19T12:53:12;10.90;;;5.05;;
9418;SDS011;4748;50.802;7.132;2022-08-19T12:55:37;6.60;;;4.88;;
9418;SDS011;4748;50.802;7.132;2022-08-19T12:58:03;5.20;;;4.70;;
9418;SDS011;4748;50.802;7.132;2022-08-19T13:00:28;10.27;;;5.80;;
9418;SDS011;4748;50.802;7.132;2022-08-19T13:02:56;6.63;;;5.00;;
9418;SDS011;4748;50.802;7.132;2022-08-19T13:05:23;5.68;;;5.07;;
9418;SDS011;4748;50.802;7.132;2022-08-19T13:07:52;6.88;;;5.55;;
9418;SDS011;4748;50.802;7.132;2022-08-19T13:10:23;6.18;;;5.20;;
9418;SDS011;4748;50.802;7.132;2022-08-19T13:12:50;10.15;;;4.93;;
9418;SDS011;4748;50.802;7.132;2022-08-19T13:15:17;7.20;;;5.45;;
9418;SDS011;4748;50.802;7.132;2022-08-19T13:17:47;5.57;;;5.07;;
9418;SDS011;4748;50.802;7.132;2022-08-19T13:20:14;4.70;;;4.28;;
9418;SDS011;4748;50.802;7.132;2022-08-19T13:22:42;3.83;;;3.53;;
9418;SDS011;4748;50.802;7.132;2022-08-19T13:25:10;5.15;;;3.17;;
9418;SDS011;4748;50.802;7.132;2022-08-19T13:27:36;5.70;;;3.70;;
9418;SDS011;4748;50.802;7.132;2022-08-19T13:30:02;3.88;;;3.53;;
9418;SDS011;4748;50.802;7.132;2022-08-19T13:32:47;4.15;;;3.85;;
9418;SDS011;4748;50.802;7.132;2022-08-19T13:35:32;6.40;;;3.65;;
9418;SDS011;4748;50.802;7.132;2022-08-19T13:37:57;4.43;;;4.10;;
9418;SDS011;4748;50.802;7.132;2022-08-19T13:40:23;4.70;;;4.30;;
9418;SDS011;4748;50.802;7.132;2022-08-19T13:42:51;6.15;;;4.55;;
9418;SDS011;4748;50.802;7.132;2022-08-19T13:45:23;5.05;;;4.57;;
9418;SDS011;4748;50.802;7.132;2022-08-19T13:47:50;11.10;;;5.07;;
9418;SDS011;4748;50.802;7.132;2022-08-19T13:50:20;4.88;;;4.45;;
9418;SDS011;4748;50.802;7.132;2022-08-19T13:52:50;9.35;;;4.88;;
9418;SDS011;4748;50.802;7.132;2022-08-19T13:55:16;5.60;;;4.45;;
9418;SDS011;4748;50.802;7.132;2022-08-19T13:57:42;5.20;;;4.00;;
9418;SDS011;4748;50.802;7.132;2022-08-19T14:00:08;3.95;;;3.65;;
9418;SDS011;4748;50.802;7.132;2022-08-19T14:02:36;9.15;;;4.45;;
9418;SDS011;4748;50.802;7.132;2022-08-19T14:05:03;4.90;;;3.47;;
9418;SDS011;4748;50.802;7.132;2022-08-19T14:07:30;3.00;;;2.80;;
9418;SDS011;4748;50.802;7.132;2022-08-19T14:09:55;4.32;;;3.15;;
9418;SDS011;4748;50.802;7.132;2022-08-19T14:12:21;3.67;;;2.85;;
9418;SDS011;4748;50.802;7.132;2022-08-19T14:14:47;3.20;;;2.85;;
9418;SDS011;4748;50.802;7.132;2022-08-19T14:17:13;2.88;;;2.22;;
9418;SDS011;4748;50.802;7.132;2022-08-19T14:19:39;3.53;;;2.70;;
9418;SDS011;4748;50.802;7.132;2022-08-19T14:22:05;4.22;;;3.20;;
9418;SDS011;4748;50.802;7.132;2022-08-19T14:24:31;2.75;;;2.35;;
9418;SDS011;4748;50.802;7.132;2022-08-19T14:26:57;5.07;;;3.60;;
9418;SDS011;4748;50.802;7.132;2022-08-19T14:29:22;4.65;;;3.30;;
9418;SDS011;4748;50.802;7.132;2022-08-19T14:31:48;3.42;;;2.38;;
9418;SDS011;4748;50.802;7.132;2022-08-19T14:34:13;6.97;;;4.32;;
9418;SDS011;4748;50.802;7.132;2022-08-19T14:36:39;4.97;;;3.05;;
9418;SDS011;4748;50.802;7.132;2022-08-19T14:39:06;5.43;;;3.50;;
9418;SDS011;4748;50.802;7.132;2022-08-19T14:41:32;7.00;;;4.03;;
9418;SDS011;4748;50.802;7.132;2022-08-19T14:43:58;3.70;;;3.25;;
9418;SDS011;4748;50.802;7.132;2022-08-19T14:46:25;6.40;;;4.03;;
9418;SDS011;4748;50.802;7.132;2022-08-19T14:48:52;3.85;;;3.50;;
9418;SDS011;4748;50.802;7.132;2022-08-19T14:51:19;5.85;;;2.83;;
9418;SDS011;4748;50.802;7.132;2022-08-19T14:53:45;3.50;;;3.20;;
9418;SDS011;4748;50.802;7.132;2022-08-19T14:56:14;3.75;;;3.10;;
9418;SDS011;4748;50.802;7.132;2022-08-19T14:58:42;3.40;;;3.15;;
9418;SDS011;4748;50.802;7.132;2022-08-19T15:01:09;4.97;;;3.38;;
9418;SDS011;4748;50.802;7.132;2022-08-19T15:03:35;4.35;;;3.22;;
9418;SDS011;4748;50.802;7.132;2022-08-19T15:06:02;3.50;;;3.20;;
9418;SDS011;4748;50.802;7.132;2022-08-19T15:08:29;9.95;;;3.17;;
9418;SDS011;4748;50.802;7.132;2022-08-19T15:10:58;5.57;;;3.17;;
9418;SDS011;4748;50.802;7.132;2022-08-19T15:13:25;5.93;;;2.88;;
9418;SDS011;4748;50.802;7.132;2022-08-19T15:15:52;3.30;;;3.00;;
9418;SDS011;4748;50.802;7.132;2022-08-19T15:18:18;3.17;;;2.88;;
9418;SDS011;4748;50.802;7.132;2022-08-19T15:20:45;4.07;;;3.65;;
9418;SDS011;4748;50.802;7.132;2022-08-19T15:23:11;4.80;;;3.20;;
9418;SDS011;4748;50.802;7.132;2022-08-19T15:25:37;4.22;;;3.38;;
9418;SDS011;4748;50.802;7.132;2022-08-19T15:28:03;3.10;;;2.85;;
9418;SDS011;4748;50.802;7.132;2022-08-19T15:30:28;8.70;;;2.90;;
9418;SDS011;4748;50.802;7.132;2022-08-19T15:32:55;9.43;;;2.28;;
9418;SDS011;4748;50.802;7.132;2022-08-19T15:35:22;4.47;;;2.30;;
9418;SDS011;4748;50.802;7.132;2022-08-19T15:37:49;9.02;;;2.20;;
9418;SDS011;4748;50.802;7.132;2022-08-19T15:40:16;2.45;;;1.83;;
9418;SDS011;4748;50.802;7.132;2022-08-19T15:42:42;3.08;;;2.47;;
9418;SDS011;4748;50.802;7.132;2022-08-19T15:45:09;2.40;;;1.60;;
9418;SDS011;4748;50.802;7.132;2022-08-19T15:47:36;1.80;;;1.70;;
9418;SDS011;4748;50.802;7.132;2022-08-19T15:50:04;2.80;;;1.90;;
9418;SDS011;4748;50.802;7.132;2022-08-19T15:52:31;2.85;;;1.60;;
9418;SDS011;4748;50.802;7.132;2022-08-19T15:54:57;1.45;;;1.20;;
9418;SDS011;4748;50.802;7.132;2022-08-19T15:57:22;1.35;;;1.20;;
9418;SDS011;4748;50.802;7.132;2022-08-19T15:59:50;2.58;;;1.60;;
9418;SDS011;4748;50.802;7.132;2022-08-19T16:02:34;6.18;;;1.50;;
9418;SDS011;4748;50.802;7.132;2022-08-19T16:05:21;0.98;;;0.98;;
9418;SDS011;4748;50.802;7.132;2022-08-19T16:08:08;1.95;;;1.42;;
9418;SDS011;4748;50.802;7.132;2022-08-19T16:10:34;4.70;;;1.40;;
9418;SDS011;4748;50.802;7.132;2022-08-19T16:13:00;5.57;;;1.30;;
9418;SDS011;4748;50.802;7.132;2022-08-19T16:15:26;1.40;;;1.30;;
9418;SDS011;4748;50.802;7.132;2022-08-19T16:17:55;7.43;;;1.55;;
9418;SDS011;4748;50.802;7.132;2022-08-19T16:20:21;1.45;;;1.30;;
9418;SDS011;4748;50.802;7.132;2022-08-19T16:22:47;1.52;;;0.95;;
9418;SDS011;4748;50.802;7.132;2022-08-19T16:25:13;1.45;;;1.35;;
9418;SDS011;4748;50.802;7.132;2022-08-19T16:27:39;2.65;;;1.33;;
9418;SDS011;4748;50.802;7.132;2022-08-19T16:30:05;2.47;;;1.10;;
9418;SDS011;4748;50.802;7.132;2022-08-19T16:32:31;2.15;;;1.20;;
9418;SDS011;4748;50.802;7.132;2022-08-19T16:34:57;2.13;;;1.38;;
9418;SDS011;4748;50.802;7.132;2022-08-19T16:37:22;1.65;;;1.30;;
9418;SDS011;4748;50.802;7.132;2022-08-19T16:39:48;1.05;;;0.95;;
9418;SDS011;4748;50.802;7.132;2022-08-19T16:42:13;1.58;;;1.15;;
9418;SDS011;4748;50.802;7.132;2022-08-19T16:44:40;5.07;;;1.10;;
9418;SDS011;4748;50.802;7.132;2022-08-19T16:47:10;4.13;;;0.90;;
9418;SDS011;4748;50.802;7.132;2022-08-19T16:49:37;4.80;;;1.42;;
9418;SDS011;4748;50.802;7.132;2022-08-19T16:52:02;1.27;;;1.10;;
9418;SDS011;4748;50.802;7.132;2022-08-19T16:54:30;1.83;;;1.00;;
9418;SDS011;4748;50.802;7.132;2022-08-19T16:56:56;9.68;;;1.15;;
9418;SDS011;4748;50.802;7.132;2022-08-19T16:59:21;1.00;;;1.00;;
9418;SDS011;4748;50.802;7.132;2022-08-19T17:01:48;0.98;;;0.80;;
9418;SDS011;4748;50.802;7.132;2022-08-19T17:04:13;0.85;;;0.80;;
9418;SDS011;4748;50.802;7.132;2022-08-19T17:06:39;0.82;;;0.82;;
9418;SDS011;4748;50.802;7.132;2022-08-19T17:09:05;1.77;;;1.48;;
9418;SDS011;4748;50.802;7.132;2022-08-19T17:11:31;2.30;;;0.80;;
9418;SDS011;4748;50.802;7.132;2022-08-19T17:13:58;1.20;;;0.60;;
9418;SDS011;4748;50.802;7.132;2022-08-19T17:16:29;0.80;;;0.80;;
9418;SDS011;4748;50.802;7.132;2022-08-19T17:18:58;0.95;;;0.73;;
9418;SDS011;4748;50.802;7.132;2022-08-19T17:21:27;0.73;;;0.73;;
9418;SDS011;4748;50.802;7.132;2022-08-19T17:23:56;0.90;;;0.70;;
9418;SDS011;4748;50.802;7.132;2022-08-19T17:26:22;1.73;;;0.75;;
9418;SDS011;4748;50.802;7.132;2022-08-19T17:28:49;0.50;;;0.50;;
9418;SDS011;4748;50.802;7.132;2022-08-19T17:31:18;2.03;;;0.65;;
9418;SDS011;4748;50.802;7.132;2022-08-19T17:33:45;2.53;;;0.90;;
9418;SDS011;4748;50.802;7.132;2022-08-19T17:36:11;1.00;;;1.00;;
9418;SDS011;4748;50.802;7.132;2022-08-19T17:38:37;3.63;;;0.47;;
9418;SDS011;4748;50.802;7.132;2022-08-19T17:41:03;1.60;;;1.15;;
9418;SDS011;4748;50.802;7.132;2022-08-19T17:43:33;0.63;;;0.63;;
9418;SDS011;4748;50.802;7.132;2022-08-19T17:46:01;4.40;;;0.80;;
9418;SDS011;4748;50.802;7.132;2022-08-19T17:48:28;2.15;;;0.60;;
9418;SDS011;4748;50.802;7.132;2022-08-19T17:50:54;2.35;;;0.60;;
9418;SDS011;4748;50.802;7.132;2022-08-19T17:53:19;0.98;;;0.88;;
9418;SDS011;4748;50.802;7.132;2022-08-19T17:55:45;0.60;;;0.60;;
9418;SDS011;4748;50.802;7.132;2022-08-19T17:58:10;0.60;;;0.60;;
9418;SDS011;4748;50.802;7.132;2022-08-19T18:00:35;3.83;;;0.60;;
9418;SDS011;4748;50.802;7.132;2022-08-19T18:03:01;0.60;;;0.60;;
9418;SDS011;4748;50.802;7.132;2022-08-19T18:05:30;3.92;;;0.65;;
9418;SDS011;4748;50.802;7.132;2022-08-19T18:07:58;3.85;;;0.90;;
9418;SDS011;4748;50.802;7.132;2022-08-19T18:10:25;7.70;;;1.02;;
9418;SDS011;4748;50.802;7.132;2022-08-19T18:12:54;1.15;;;0.60;;
9418;SDS011;4748;50.802;7.132;2022-08-19T18:15:20;0.95;;;0.65;;
9418;SDS011;4748;50.802;7.132;2022-08-19T18:17:47;3.63;;;0.60;;
9418;SDS011;4748;50.802;7.132;2022-08-19T18:20:13;1.15;;;1.10;;
9418;SDS011;4748;50.802;7.132;2022-08-19T18:22:41;1.33;;;1.00;;
9418;SDS011;4748;50.802;7.132;2022-08-19T18:25:13;3.92;;;1.02;;
9418;SDS011;4748;50.802;7.132;2022-08-19T18:27:39;1.67;;;0.70;;
9418;SDS011;4748;50.802;7.132;2022-08-19T18:30:07;3.55;;;0.95;;
9418;SDS011;4748;50.802;7.132;2022-08-19T18:32:35;1.92;;;1.15;;
9418;SDS011;4748;50.802;7.132;2022-08-19T18:35:07;5.57;;;2.17;;
9418;SDS011;4748;50.802;7.132;2022-08-19T18:37:35;2.00;;;0.90;;
9418;SDS011;4748;50.802;7.132;2022-08-19T18:40:02;0.77;;;0.77;;
9418;SDS011;4748;50.802;7.132;2022-08-19T18:42:48;1.00;;;0.90;;
9418;SDS011;4748;50.802;7.132;2022-08-19T18:45:32;2.40;;;1.10;;
9418;SDS011;4748;50.802;7.132;2022-08-19T18:48:16;2.72;;;1.10;;
9418;SDS011;4748;50.802;7.132;2022-08-19T18:51:00;1.50;;;1.10;;
9418;SDS011;4748;50.802;7.132;2022-08-19T18:53:26;1.63;;;1.00;;